logo liguriameteo

Diretta Meteo Beziers-Vias, Francialunedì 22 luglio ore 13:00

Mappa
Sereno 27 °C Sereno 24 Ore: T.min 19 T.max 29
Ponente Nord/NOvest Km/h 35.2 Punto di rugiada: 14 °C Umidità: 44% Visibilità: 10 Km
Il sole sorge alle: 06:25 Il sole tramonta alle: 21:20
22 Luglio 2024 13:00 tempo osservato: Sereno Sereno 27 44 1018 vento: Nord N/NO 35.2
22 Luglio 2024 12:30 tempo osservato: Sereno Sereno 28 45 1018 vento: Nord N/NO 25.9
22 Luglio 2024 12:00 tempo osservato: Sereno Sereno 27 47 1018 vento: Nord NO 27.8
22 Luglio 2024 11:30 tempo osservato: Sereno Sereno 26 50 1018 vento: Nord NO 29.6
22 Luglio 2024 11:00 tempo osservato: Sereno Sereno 26 47 1018 vento: Nord O/NO 29.6
22 Luglio 2024 10:30 tempo osservato: Sereno Sereno 25 53 1018 vento: Nord O/NO 25.9
22 Luglio 2024 10:00 tempo osservato: Sereno Sereno 24 53 1018 vento: Nord N/NO 20.3
22 Luglio 2024 09:30 tempo osservato: Sereno Sereno 24 53 1018 vento: Nord O/NO 25.9
22 Luglio 2024 09:00 tempo osservato: Sereno Sereno 23 56 1018 vento: Nord O/NO 25.9
22 Luglio 2024 08:30 tempo osservato: Sereno Sereno 23 56 1018 vento: Nord O/NO 24
22 Luglio 2024 08:00 tempo osservato: Sereno Sereno 22 60 1017 vento: Nord NO 27.8
22 Luglio 2024 07:30 tempo osservato: Sereno Sereno 21 64 1017 vento: Nord O/NO 24
22 Luglio 2024 07:00 tempo osservato: Sereno Sereno 20 68 1018 vento: Nord O/NO 24
22 Luglio 2024 06:30 tempo osservato: Sereno Sereno 19 72 1017 vento: Nord O 20.3
22 Luglio 2024 06:00 tempo osservato: Sereno Sereno 19 72 1017 vento: Nord O 18.5
22 Luglio 2024 05:30 tempo osservato: Sereno Sereno 19 72 1017 vento: Nord O 33.3
22 Luglio 2024 05:00 tempo osservato: Sereno Sereno 20 72 1017 vento: Nord O 29.6
22 Luglio 2024 04:30 tempo osservato: Sereno Sereno 20 72 1016 vento: Nord O 29.6
22 Luglio 2024 04:00 tempo osservato: Sereno Sereno 20 72 1017 vento: Nord O 29.6
22 Luglio 2024 03:30 tempo osservato: Sereno Sereno 20 68 1017 vento: Nord O 31.5
22 Luglio 2024 03:00 tempo osservato: Sereno Sereno 20 72 1017 vento: Nord O 22.2
22 Luglio 2024 02:30 tempo osservato: Sereno Sereno 20 72 1017 vento: Nord O 25.9
22 Luglio 2024 02:00 tempo osservato: Sereno Sereno 21 68 1017 vento: Nord O 27.8
22 Luglio 2024 01:30 tempo osservato: Sereno Sereno 21 68 1016 vento: Nord O/NO 29.6
22 Luglio 2024 01:00 tempo osservato: Sereno Sereno 21 68 1016 vento: Nord O/NO 33.3
22 Luglio 2024 00:30 tempo osservato: Sereno Sereno 21 68 1016 vento: Nord O/NO 31.5
22 Luglio 2024 00:00 tempo osservato: Sereno Sereno 20 72 1016 vento: Nord O 37
21 Luglio 2024 23:30 tempo osservato: Sereno Sereno 21 68 1016 vento: Nord O 31.5
21 Luglio 2024 23:00 tempo osservato: Sereno Sereno 21 68 1016 vento: Nord O 31.5
21 Luglio 2024 22:30 tempo osservato: Sereno Sereno 21 68 1016 vento: Nord O 24
21 Luglio 2024 22:00 tempo osservato: Sereno Sereno 21 68 1015 vento: Nord O 33.3
21 Luglio 2024 21:30 tempo osservato: Sereno Sereno 22 64 1015 vento: Nord O 27.8
21 Luglio 2024 21:00 tempo osservato: Sereno Sereno 23 56 1015 vento: Nord O/NO 31.5
21 Luglio 2024 20:30 tempo osservato: Sereno Sereno 23 56 1014 vento: Nord O 29.6
21 Luglio 2024 20:00 tempo osservato: Sereno Sereno 24 53 1014 vento: Nord O/NO 33.3
21 Luglio 2024 19:30 tempo osservato: Sereno Sereno 24 53 1013 vento: Nord O/NO 40.7
21 Luglio 2024 19:00 tempo osservato: Sereno Sereno 25 50 1013 vento: Nord O/NO 38.8
21 Luglio 2024 18:30 tempo osservato: Sereno Sereno 25 50 1013 vento: Nord O/NO 44.4
21 Luglio 2024 18:00 tempo osservato: Sereno Sereno 26 44 1013 vento: Nord O 44.4
21 Luglio 2024 17:30 tempo osservato: Sereno Sereno 28 42 1012 vento: Nord O/NO 40.7
21 Luglio 2024 17:00 tempo osservato: Sereno Sereno 29 35 1012 vento: Nord O/NO 37
21 Luglio 2024 16:30 tempo osservato: Sereno Sereno 29 37 1012 vento: Nord NO 31.5
21 Luglio 2024 16:00 tempo osservato: Sereno Sereno 28 39 1012 vento: Nord NO 33.3
21 Luglio 2024 15:30 tempo osservato: Sereno Sereno 28 39 1012 vento: Nord O/NO 35.2
21 Luglio 2024 15:00 tempo osservato: Sereno Sereno 28 42 1011 vento: Nord O/NO 40.7
21 Luglio 2024 14:30 tempo osservato: Sereno Sereno 27 44 1011 vento: Nord O/NO 37
21 Luglio 2024 14:00 tempo osservato: Sereno Sereno 26 47 1011 vento: Nord O/NO 29.6